createdAt,value
2023-01-17T00:02:13.849Z,7.20
2023-01-17T00:05:37.921Z,8.20
2023-01-17T00:09:01.571Z,3.50
2023-01-17T00:12:08.749Z,2.10
2023-01-17T00:15:16.869Z,2.10
2023-01-17T00:18:23.107Z,5.60
2023-01-17T00:21:46.738Z,11.10
2023-01-17T00:25:10.300Z,11.10
2023-01-17T00:28:15.292Z,10.40
2023-01-17T00:31:20.298Z,7.80
2023-01-17T00:34:25.266Z,6.40
2023-01-17T00:37:30.227Z,6.90
2023-01-17T00:40:36.026Z,3.90
2023-01-17T00:43:59.795Z,7.10
2023-01-17T00:47:23.329Z,2.80
2023-01-17T00:50:47.352Z,4.10
2023-01-17T00:54:10.831Z,7.20
2023-01-17T00:57:34.595Z,7.40
2023-01-17T01:00:58.207Z,8.50
2023-01-17T01:04:22.339Z,12.80
2023-01-17T01:07:46.117Z,12.50
2023-01-17T01:11:09.992Z,9.20
2023-01-17T01:14:33.466Z,9.30
2023-01-17T01:17:57.233Z,8.40
2023-01-17T01:21:24.804Z,6.30
2023-01-17T01:24:49.095Z,6.90
2023-01-17T01:28:21.051Z,5.40
2023-01-17T01:31:44.861Z,8.00
2023-01-17T01:34:51.214Z,8.40
2023-01-17T01:41:01.487Z,10.90
2023-01-17T01:44:21.387Z,4.20
2023-01-17T01:47:32.144Z,4.00
2023-01-17T01:50:39.087Z,7.70
2023-01-17T01:53:53.996Z,8.10
2023-01-17T01:57:02.120Z,6.90
2023-01-17T02:00:15.827Z,5.80
2023-01-17T02:03:27.340Z,4.60
2023-01-17T02:06:36.864Z,5.10
2023-01-17T02:09:42.952Z,7.30
2023-01-17T02:12:50.654Z,5.10
2023-01-17T02:16:04.421Z,6.60
2023-01-17T02:19:37.469Z,7.20
2023-01-17T02:23:28.388Z,6.80
2023-01-17T02:27:01.219Z,6.30
2023-01-17T02:30:30.951Z,5.70
2023-01-17T02:33:46.887Z,5.30
2023-01-17T02:36:57.885Z,6.40
2023-01-17T02:40:10.175Z,5.10
2023-01-17T02:43:18.135Z,4.90
2023-01-17T02:46:24.384Z,4.70
2023-01-17T02:49:32.939Z,4.60
2023-01-17T02:52:51.378Z,5.10
2023-01-17T02:56:07.309Z,4.70
2023-01-17T02:59:22.339Z,3.40
2023-01-17T03:02:34.571Z,4.40
2023-01-17T03:05:45.695Z,3.80
2023-01-17T03:08:54.606Z,3.60
2023-01-17T03:12:01.170Z,3.20
2023-01-17T03:15:13.106Z,4.30
2023-01-17T03:18:19.734Z,3.30
2023-01-17T03:21:26.411Z,2.70
2023-01-17T03:24:32.688Z,7.00
2023-01-17T03:27:39.011Z,9.50
2023-01-17T03:33:49.949Z,44.60
2023-01-17T03:36:56.420Z,5.60
2023-01-17T03:40:02.654Z,4.00
2023-01-17T03:43:09.096Z,25.70
2023-01-17T03:46:23.935Z,4.90
2023-01-17T03:49:30.232Z,3.70
2023-01-17T03:55:40.773Z,3.10
2023-01-17T03:58:47.756Z,3.10
2023-01-17T04:01:54.107Z,3.20
2023-01-17T04:08:06.781Z,3.40
2023-01-17T04:11:12.987Z,2.20
2023-01-17T04:14:19.199Z,2.40
2023-01-17T04:17:26.096Z,2.50
2023-01-17T04:20:35.761Z,2.60
2023-01-17T04:23:42.026Z,2.30
2023-01-17T04:26:48.243Z,2.30
2023-01-17T04:29:54.487Z,2.70
2023-01-17T04:36:06.372Z,2.80
2023-01-17T04:39:12.638Z,2.20
2023-01-17T04:42:18.840Z,2.00
2023-01-17T04:45:25.157Z,2.60
2023-01-17T04:51:37.979Z,3.20
2023-01-17T04:54:44.236Z,3.20
2023-01-17T04:57:50.462Z,2.40
2023-01-17T05:00:57.658Z,2.30
2023-01-17T05:04:03.950Z,2.60
2023-01-17T05:10:15.317Z,1.60
2023-01-17T05:13:21.840Z,2.10
2023-01-17T05:16:28.488Z,2.10
2023-01-17T05:19:34.738Z,2.30
2023-01-17T05:22:40.956Z,2.10
2023-01-17T05:25:47.219Z,2.50
2023-01-17T05:31:57.896Z,2.30
2023-01-17T05:35:04.124Z,2.10
2023-01-17T05:38:10.501Z,1.60
2023-01-17T05:44:21.268Z,2.00
2023-01-17T05:47:27.501Z,3.20
2023-01-17T05:50:35.374Z,2.60
2023-01-17T05:53:41.640Z,2.10
2023-01-17T05:56:47.935Z,2.40
2023-01-17T06:03:00.023Z,2.50
2023-01-17T06:06:06.472Z,2.80
2023-01-17T06:12:18.150Z,2.20
2023-01-17T06:15:24.351Z,2.30
2023-01-17T06:18:30.951Z,3.80
2023-01-17T06:21:37.345Z,4.30
2023-01-17T06:27:48.052Z,5.40
2023-01-17T06:30:54.370Z,6.80
2023-01-17T06:37:05.155Z,11.30
2023-01-17T06:40:14.034Z,9.50
2023-01-17T06:43:20.255Z,8.30
2023-01-17T06:46:26.472Z,6.70
2023-01-17T06:49:32.698Z,6.10
2023-01-17T06:52:39.066Z,4.40
2023-01-17T06:58:53.450Z,4.30
2023-01-17T07:01:59.811Z,4.60
2023-01-17T07:05:06.597Z,3.60
2023-01-17T07:08:12.874Z,4.00
2023-01-17T07:14:23.666Z,3.70
2023-01-17T07:17:29.932Z,4.60
2023-01-17T07:23:40.947Z,7.40
2023-01-17T07:29:54.076Z,6.50
2023-01-17T07:33:01.419Z,5.80
2023-01-17T07:36:09.843Z,6.50
2023-01-17T07:39:16.271Z,9.90
2023-01-17T07:42:24.044Z,11.10
2023-01-17T07:45:30.988Z,9.80
2023-01-17T07:48:37.363Z,11.10
2023-01-17T07:54:48.140Z,8.30
2023-01-17T07:57:54.571Z,8.30
2023-01-17T08:01:06.380Z,8.70
2023-01-17T08:04:14.198Z,5.50
2023-01-17T08:07:20.518Z,5.60
2023-01-17T08:13:31.633Z,5.30
2023-01-17T08:19:44.859Z,3.40
2023-01-17T08:22:53.123Z,3.50
2023-01-17T08:26:03.303Z,2.70
2023-01-17T08:29:10.322Z,3.00
2023-01-17T08:32:16.937Z,3.30
2023-01-17T08:35:23.206Z,3.90
2023-01-17T08:38:29.573Z,4.10
2023-01-17T08:44:40.406Z,3.60
2023-01-17T08:50:51.292Z,3.40
2023-01-17T08:57:03.431Z,3.20
2023-01-17T09:00:12.437Z,3.20
2023-01-17T09:03:18.966Z,3.00
2023-01-17T09:06:25.227Z,3.80
2023-01-17T09:09:31.379Z,4.20
2023-01-17T09:12:39.031Z,6.40
2023-01-17T09:15:45.279Z,4.30
2023-01-17T09:18:54.781Z,3.50
2023-01-17T09:22:01.035Z,2.80
2023-01-17T09:25:08.691Z,3.50
2023-01-17T09:28:14.808Z,3.30
2023-01-17T09:31:22.743Z,3.10
2023-01-17T09:34:30.667Z,2.90
2023-01-17T09:37:37.007Z,2.90
2023-01-17T09:43:55.166Z,2.70
2023-01-17T09:47:06.117Z,2.00
2023-01-17T09:50:26.768Z,2.10
2023-01-17T09:53:36.082Z,2.30
2023-01-17T09:56:49.591Z,2.40
2023-01-17T10:00:04.327Z,2.10
2023-01-17T10:03:38.590Z,2.70
2023-01-17T10:07:02.740Z,2.20
2023-01-17T10:10:29.596Z,2.20
2023-01-17T10:13:44.593Z,2.10
2023-01-17T10:16:56.702Z,2.30
2023-01-17T10:20:18.049Z,2.50
2023-01-17T10:24:04.225Z,2.50
2023-01-17T10:27:17.350Z,2.70
2023-01-17T10:30:28.476Z,2.60
2023-01-17T10:33:41.706Z,2.50
2023-01-17T10:36:51.459Z,2.20
2023-01-17T10:40:03.083Z,2.50
2023-01-17T10:43:19.303Z,2.70
2023-01-17T10:46:31.565Z,2.70
2023-01-17T10:49:41.316Z,2.90
2023-01-17T10:52:53.463Z,2.60
2023-01-17T10:55:59.851Z,3.00
2023-01-17T11:02:25.252Z,2.60
2023-01-17T11:05:34.051Z,2.70
2023-01-17T11:08:53.829Z,2.20
2023-01-17T11:12:00.213Z,2.50
2023-01-17T11:18:19.933Z,2.40
2023-01-17T11:21:27.755Z,2.90
2023-01-17T11:24:37.601Z,2.60
2023-01-17T11:27:45.095Z,2.40
2023-01-17T11:30:56.811Z,2.20
2023-01-17T11:34:19.933Z,2.50
2023-01-17T11:37:29.285Z,2.80
2023-01-17T11:40:41.128Z,3.00
2023-01-17T11:43:55.169Z,3.20
2023-01-17T11:47:19.423Z,2.40
2023-01-17T11:50:29.669Z,2.70
2023-01-17T11:53:39.261Z,2.30
2023-01-17T11:56:46.423Z,2.70
2023-01-17T11:59:57.893Z,2.90
2023-01-17T12:03:23.906Z,2.60
2023-01-17T12:06:56.519Z,2.80
2023-01-17T12:10:13.408Z,3.10
2023-01-17T12:13:49.491Z,2.80
2023-01-17T12:17:14.130Z,3.10
2023-01-17T12:20:28.639Z,3.10
2023-01-17T12:23:52.072Z,3.70
2023-01-17T12:27:08.018Z,2.80
2023-01-17T12:30:30.946Z,2.90
2023-01-17T12:33:47.778Z,3.10
2023-01-17T12:36:57.932Z,2.80
2023-01-17T12:40:08.859Z,3.00
2023-01-17T12:43:21.345Z,4.40
2023-01-17T12:46:33.008Z,3.00
2023-01-17T12:49:47.562Z,3.00
2023-01-17T12:53:00.489Z,3.10
2023-01-17T12:56:13.528Z,3.50
2023-01-17T12:59:27.056Z,4.20
2023-01-17T13:02:38.966Z,3.90
2023-01-17T13:05:48.647Z,4.10
2023-01-17T13:08:57.186Z,3.80
2023-01-17T13:12:08.222Z,3.60
2023-01-17T13:15:27.242Z,3.10
2023-01-17T13:18:33.529Z,3.60
2023-01-17T13:24:52.187Z,3.80
2023-01-17T13:28:15.285Z,3.20
2023-01-17T13:31:30.137Z,4.60
2023-01-17T13:35:00.275Z,4.10
2023-01-17T13:38:29.245Z,4.20
2023-01-17T13:41:51.551Z,4.50
2023-01-17T13:44:59.157Z,3.40
2023-01-17T13:48:34.352Z,3.40
2023-01-17T13:52:13.276Z,4.80
2023-01-17T13:55:46.167Z,5.60
2023-01-17T13:59:06.992Z,3.70
2023-01-17T14:02:40.229Z,4.40
2023-01-17T14:05:59.011Z,5.20
2023-01-17T14:09:12.081Z,4.40
2023-01-17T14:12:32.789Z,5.10
2023-01-17T14:15:51.413Z,3.60
2023-01-17T14:18:58.626Z,4.50
2023-01-17T14:22:24.934Z,3.10
2023-01-17T14:25:39.677Z,3.60
2023-01-17T14:28:45.953Z,3.70
2023-01-17T14:34:57.480Z,3.80
2023-01-17T14:38:05.806Z,3.60
2023-01-17T14:41:19.969Z,3.60
2023-01-17T14:44:26.233Z,4.40
2023-01-17T14:47:36.780Z,4.30
2023-01-17T14:50:45.008Z,4.50
2023-01-17T14:53:57.712Z,4.20
2023-01-17T14:57:30.844Z,4.30
2023-01-17T15:00:42.631Z,4.90
2023-01-17T15:03:51.254Z,4.60
2023-01-17T15:06:58.922Z,6.90
2023-01-17T15:10:06.122Z,4.90
2023-01-17T15:13:14.958Z,4.10
2023-01-17T15:16:28.433Z,5.40
2023-01-17T15:19:45.005Z,4.60
2023-01-17T15:22:51.347Z,4.10
2023-01-17T15:29:06.854Z,4.10
2023-01-17T15:32:20.923Z,3.90
2023-01-17T15:35:28.344Z,4.40
2023-01-17T15:38:39.003Z,4.40
2023-01-17T15:41:47.388Z,4.10
2023-01-17T15:44:57.994Z,4.10
2023-01-17T15:48:34.603Z,4.50
2023-01-17T15:51:46.693Z,4.30
2023-01-17T15:54:54.716Z,3.90
2023-01-17T15:58:01.354Z,4.00
2023-01-17T16:01:18.133Z,4.80
2023-01-17T16:04:34.309Z,5.30
2023-01-17T16:07:40.527Z,5.30
2023-01-17T16:10:47.469Z,5.20
2023-01-17T16:13:54.081Z,4.80
2023-01-17T16:17:01.639Z,5.10
2023-01-17T16:20:16.168Z,13.80
2023-01-17T16:23:22.479Z,21.50
2023-01-17T16:29:35.660Z,41.00
2023-01-17T16:32:41.840Z,28.50
2023-01-17T16:35:48.248Z,26.30
2023-01-17T16:38:54.768Z,20.90
2023-01-17T16:42:03.498Z,15.70
2023-01-17T16:45:11.130Z,38.40
2023-01-17T16:48:19.323Z,49.50
2023-01-17T16:51:25.848Z,49.30
2023-01-17T16:54:32.085Z,43.80
2023-01-17T16:57:38.336Z,41.20
2023-01-17T17:03:49.561Z,24.00
2023-01-17T17:06:55.640Z,29.70
2023-01-17T17:10:01.951Z,33.30
2023-01-17T17:16:18.496Z,28.20
2023-01-17T17:19:25.261Z,28.80
2023-01-17T17:22:31.689Z,26.30
2023-01-17T17:28:42.491Z,18.70
2023-01-17T17:31:48.727Z,10.40
2023-01-17T17:34:54.941Z,9.10
2023-01-17T17:38:01.284Z,7.70
2023-01-17T17:44:17.579Z,15.40
2023-01-17T17:47:24.464Z,22.30
2023-01-17T17:50:31.057Z,29.60
2023-01-17T17:53:37.056Z,39.80
2023-01-17T17:56:46.535Z,38.70
2023-01-17T17:59:52.968Z,33.60
2023-01-17T18:02:58.925Z,32.30
2023-01-17T18:06:07.581Z,33.60
2023-01-17T18:09:14.676Z,39.20
2023-01-17T18:12:20.957Z,49.80
2023-01-17T18:15:27.239Z,25.40
2023-01-17T18:21:40.211Z,103.50
2023-01-17T18:24:46.303Z,42.10
2023-01-17T18:27:52.739Z,45.30
2023-01-17T18:30:59.107Z,34.40
2023-01-17T18:34:08.574Z,42.70
2023-01-17T18:37:14.892Z,44.10
2023-01-17T18:43:28.893Z,39.80
2023-01-17T18:46:35.565Z,21.80
2023-01-17T18:49:41.757Z,15.10
2023-01-17T18:52:47.740Z,19.10
2023-01-17T18:55:57.594Z,33.70
2023-01-17T18:59:05.895Z,35.80
2023-01-17T19:02:13.035Z,57.20
2023-01-17T19:05:21.689Z,51.60
2023-01-17T19:08:27.650Z,52.40
2023-01-17T19:11:34.256Z,52.00
2023-01-17T19:14:40.297Z,51.30
2023-01-17T19:17:46.246Z,52.20
2023-01-17T19:20:52.198Z,65.10
2023-01-17T19:23:59.420Z,60.30
2023-01-17T19:27:07.213Z,55.90
2023-01-17T19:30:15.157Z,57.10
2023-01-17T19:33:21.562Z,30.60
2023-01-17T19:39:33.660Z,40.60
2023-01-17T19:42:40.733Z,21.80
2023-01-17T19:45:56.191Z,21.40
2023-01-17T19:49:02.726Z,10.00
2023-01-17T19:52:09.048Z,41.00
2023-01-17T19:58:20.028Z,40.00
2023-01-17T20:04:34.634Z,49.70
2023-01-17T20:10:46.741Z,19.80
2023-01-17T20:13:57.630Z,22.10
2023-01-17T20:17:04.725Z,27.60
2023-01-17T20:20:13.632Z,35.60
2023-01-17T20:23:19.809Z,30.20
2023-01-17T20:26:34.886Z,14.10
2023-01-17T20:29:41.455Z,27.20
2023-01-17T20:32:47.920Z,8.10
2023-01-17T20:36:09.090Z,19.90
2023-01-17T20:39:18.206Z,8.40
2023-01-17T20:42:24.378Z,5.00
2023-01-17T20:45:30.690Z,5.60
2023-01-17T20:51:44.442Z,5.80
2023-01-17T20:54:51.863Z,4.70
2023-01-17T20:57:59.876Z,4.50
2023-01-17T21:01:06.932Z,4.90
2023-01-17T21:04:14.790Z,6.80
2023-01-17T21:07:21.245Z,14.60
2023-01-17T21:10:29.475Z,14.60
2023-01-17T21:13:35.977Z,14.90
2023-01-17T21:16:42.415Z,5.80
2023-01-17T21:19:48.647Z,5.90
2023-01-17T21:22:54.975Z,6.50
2023-01-17T21:29:05.895Z,16.90
2023-01-17T21:35:16.819Z,11.70
2023-01-17T21:38:23.118Z,8.30
2023-01-17T21:44:36.474Z,5.40
2023-01-17T21:47:44.783Z,4.90
2023-01-17T21:50:52.786Z,5.70
2023-01-17T21:53:59.173Z,5.10
2023-01-17T22:00:27.320Z,5.10
2023-01-17T22:03:33.630Z,3.80
2023-01-17T22:09:45.505Z,4.20
2023-01-17T22:16:03.631Z,4.40
2023-01-17T22:19:09.882Z,3.90
2023-01-17T22:22:16.343Z,3.70
2023-01-17T22:25:23.370Z,3.30
2023-01-17T22:28:32.694Z,3.20
2023-01-17T22:31:39.094Z,3.60
2023-01-17T22:37:49.939Z,3.20
2023-01-17T22:44:03.582Z,3.30
2023-01-17T22:47:09.952Z,3.00
2023-01-17T22:53:20.596Z,3.60
2023-01-17T22:56:29.261Z,3.00
2023-01-17T22:59:35.726Z,2.80
2023-01-17T23:02:42.766Z,2.90
2023-01-17T23:05:49.073Z,3.70
2023-01-17T23:08:57.366Z,3.50
2023-01-17T23:12:03.510Z,4.20
2023-01-17T23:15:28.359Z,16.50
2023-01-17T23:18:52.092Z,6.20
2023-01-17T23:22:19.392Z,3.80
2023-01-17T23:25:25.765Z,3.80
2023-01-17T23:28:31.988Z,4.20
2023-01-17T23:31:39.499Z,4.20
2023-01-17T23:34:47.771Z,4.50
2023-01-17T23:38:11.520Z,4.40
2023-01-17T23:41:34.871Z,4.90
2023-01-17T23:44:40.957Z,5.40
2023-01-17T23:47:47.387Z,4.80
2023-01-17T23:50:57.764Z,5.60
2023-01-17T23:54:06.299Z,5.10
2023-01-17T23:57:12.542Z,5.30
